sensor_id;sensor_type;location;lat;lon;timestamp;temperature;humidity
7044;DHT22;57890;52.36301240;9.76001620;2022-10-29T00:00:35;19.10;99.90
7044;DHT22;57890;52.36301240;9.76001620;2022-10-29T00:03:02;19.10;99.90
7044;DHT22;57890;52.36301240;9.76001620;2022-10-29T00:05:29;19.10;99.90
7044;DHT22;57890;52.36301240;9.76001620;2022-10-29T00:07:56;19.10;99.90
7044;DHT22;57890;52.36301240;9.76001620;2022-10-29T00:10:23;19.10;99.90
7044;DHT22;57890;52.36301240;9.76001620;2022-10-29T00:12:51;19.00;99.90
7044;DHT22;57890;52.36301240;9.76001620;2022-10-29T00:15:18;19.00;99.90
7044;DHT22;57890;52.36301240;9.76001620;2022-10-29T00:17:45;19.10;99.90
7044;DHT22;57890;52.36301240;9.76001620;2022-10-29T00:20:12;19.10;99.90
7044;DHT22;57890;52.36301240;9.76001620;2022-10-29T00:22:39;19.00;99.90
7044;DHT22;57890;52.36301240;9.76001620;2022-10-29T00:25:07;19.00;99.90
7044;DHT22;57890;52.36301240;9.76001620;2022-10-29T00:27:34;19.00;99.90
7044;DHT22;57890;52.36301240;9.76001620;2022-10-29T00:30:03;19.00;99.90
7044;DHT22;57890;52.36301240;9.76001620;2022-10-29T00:32:29;19.00;99.90
7044;DHT22;57890;52.36301240;9.76001620;2022-10-29T00:34:56;19.00;99.90
7044;DHT22;57890;52.36301240;9.76001620;2022-10-29T00:37:23;19.00;99.90
7044;DHT22;57890;52.36301240;9.76001620;2022-10-29T00:39:50;19.00;99.90
7044;DHT22;57890;52.36301240;9.76001620;2022-10-29T00:42:17;19.00;99.90
7044;DHT22;57890;52.36301240;9.76001620;2022-10-29T00:44:44;19.00;99.90
7044;DHT22;57890;52.36301240;9.76001620;2022-10-29T00:47:18;19.00;99.90
7044;DHT22;57890;52.36301240;9.76001620;2022-10-29T00:49:49;19.00;99.90
7044;DHT22;57890;52.36301240;9.76001620;2022-10-29T00:52:18;19.00;99.90
7044;DHT22;57890;52.36301240;9.76001620;2022-10-29T00:54:49;19.00;99.90
7044;DHT22;57890;52.36301240;9.76001620;2022-10-29T00:57:20;19.00;99.90
7044;DHT22;57890;52.36301240;9.76001620;2022-10-29T00:59:51;19.00;99.90
7044;DHT22;57890;52.36301240;9.76001620;2022-10-29T01:02:21;19.00;99.90
7044;DHT22;57890;52.36301240;9.76001620;2022-10-29T01:04:48;19.00;99.90
7044;DHT22;57890;52.36301240;9.76001620;2022-10-29T01:07:16;19.00;99.90
7044;DHT22;57890;52.36301240;9.76001620;2022-10-29T01:09:43;19.00;99.90
7044;DHT22;57890;52.36301240;9.76001620;2022-10-29T01:12:33;19.00;99.90
7044;DHT22;57890;52.36301240;9.76001620;2022-10-29T01:15:09;19.00;99.90
7044;DHT22;57890;52.36301240;9.76001620;2022-10-29T01:17:48;19.00;99.90
7044;DHT22;57890;52.36301240;9.76001620;2022-10-29T01:23:51;19.00;99.90
7044;DHT22;57890;52.36301240;9.76001620;2022-10-29T01:26:46;19.00;99.90
7044;DHT22;57890;52.36301240;9.76001620;2022-10-29T01:29:34;19.00;99.90
7044;DHT22;57890;52.36301240;9.76001620;2022-10-29T01:32:10;19.00;99.90
7044;DHT22;57890;52.36301240;9.76001620;2022-10-29T01:34:42;18.90;99.90
7044;DHT22;57890;52.36301240;9.76001620;2022-10-29T01:37:15;18.90;99.90
7044;DHT22;57890;52.36301240;9.76001620;2022-10-29T01:39:54;18.90;99.90
7044;DHT22;57890;52.36301240;9.76001620;2022-10-29T01:42:26;18.90;99.90
7044;DHT22;57890;52.36301240;9.76001620;2022-10-29T01:45:05;18.90;99.90
7044;DHT22;57890;52.36301240;9.76001620;2022-10-29T01:47:37;18.90;99.90
7044;DHT22;57890;52.36301240;9.76001620;2022-10-29T01:50:08;18.90;99.90
7044;DHT22;57890;52.36301240;9.76001620;2022-10-29T01:52:37;18.90;99.90
7044;DHT22;57890;52.36301240;9.76001620;2022-10-29T01:55:05;18.90;99.90
7044;DHT22;57890;52.36301240;9.76001620;2022-10-29T01:57:34;18.90;99.90
7044;DHT22;57890;52.36301240;9.76001620;2022-10-29T02:00:04;18.90;99.90
7044;DHT22;57890;52.36301240;9.76001620;2022-10-29T02:02:46;18.90;99.90
7044;DHT22;57890;52.36301240;9.76001620;2022-10-29T02:05:26;18.80;99.90
7044;DHT22;57890;52.36301240;9.76001620;2022-10-29T02:07:57;18.80;99.90
7044;DHT22;57890;52.36301240;9.76001620;2022-10-29T02:10:31;18.80;99.90
7044;DHT22;57890;52.36301240;9.76001620;2022-10-29T02:12:59;18.80;99.90
7044;DHT22;57890;52.36301240;9.76001620;2022-10-29T02:15:29;18.80;99.90
7044;DHT22;57890;52.36301240;9.76001620;2022-10-29T02:18:00;18.80;99.90
7044;DHT22;57890;52.36301240;9.76001620;2022-10-29T02:20:28;18.80;99.90
7044;DHT22;57890;52.36301240;9.76001620;2022-10-29T02:22:56;18.80;99.90
7044;DHT22;57890;52.36301240;9.76001620;2022-10-29T02:25:23;18.80;99.90
7044;DHT22;57890;52.36301240;9.76001620;2022-10-29T02:27:50;18.80;99.90
7044;DHT22;57890;52.36301240;9.76001620;2022-10-29T02:30:17;18.80;99.90
7044;DHT22;57890;52.36301240;9.76001620;2022-10-29T02:32:44;18.80;99.90
7044;DHT22;57890;52.36301240;9.76001620;2022-10-29T02:35:12;18.80;99.90
7044;DHT22;57890;52.36301240;9.76001620;2022-10-29T02:37:39;18.80;99.90
7044;DHT22;57890;52.36301240;9.76001620;2022-10-29T02:40:07;18.80;99.90
7044;DHT22;57890;52.36301240;9.76001620;2022-10-29T02:42:34;18.80;99.90
7044;DHT22;57890;52.36301240;9.76001620;2022-10-29T02:45:02;18.80;99.90
7044;DHT22;57890;52.36301240;9.76001620;2022-10-29T02:47:29;18.80;99.90
7044;DHT22;57890;52.36301240;9.76001620;2022-10-29T02:49:56;18.70;99.90
7044;DHT22;57890;52.36301240;9.76001620;2022-10-29T02:52:24;18.70;99.90
7044;DHT22;57890;52.36301240;9.76001620;2022-10-29T02:54:51;18.70;99.90
7044;DHT22;57890;52.36301240;9.76001620;2022-10-29T02:57:18;18.70;99.90
7044;DHT22;57890;52.36301240;9.76001620;2022-10-29T02:59:45;18.60;99.90
7044;DHT22;57890;52.36301240;9.76001620;2022-10-29T03:02:12;18.60;99.90
7044;DHT22;57890;52.36301240;9.76001620;2022-10-29T03:04:39;18.60;99.90
7044;DHT22;57890;52.36301240;9.76001620;2022-10-29T03:07:06;18.60;99.90
7044;DHT22;57890;52.36301240;9.76001620;2022-10-29T03:09:34;18.50;99.90
7044;DHT22;57890;52.36301240;9.76001620;2022-10-29T03:12:01;18.50;99.90
7044;DHT22;57890;52.36301240;9.76001620;2022-10-29T03:14:28;18.50;99.90
7044;DHT22;57890;52.36301240;9.76001620;2022-10-29T03:16:55;18.40;99.90
7044;DHT22;57890;52.36301240;9.76001620;2022-10-29T03:19:22;18.40;99.90
7044;DHT22;57890;52.36301240;9.76001620;2022-10-29T03:21:49;18.40;99.90
7044;DHT22;57890;52.36301240;9.76001620;2022-10-29T03:24:16;18.30;99.90
7044;DHT22;57890;52.36301240;9.76001620;2022-10-29T03:26:44;18.30;99.90
7044;DHT22;57890;52.36301240;9.76001620;2022-10-29T03:29:11;18.30;99.90
7044;DHT22;57890;52.36301240;9.76001620;2022-10-29T03:31:38;18.30;99.90
7044;DHT22;57890;52.36301240;9.76001620;2022-10-29T03:34:05;18.20;99.90
7044;DHT22;57890;52.36301240;9.76001620;2022-10-29T03:36:32;18.20;99.90
7044;DHT22;57890;52.36301240;9.76001620;2022-10-29T03:38:59;18.20;99.90
7044;DHT22;57890;52.36301240;9.76001620;2022-10-29T03:41:26;18.10;99.90
7044;DHT22;57890;52.36301240;9.76001620;2022-10-29T03:43:54;18.10;99.90
7044;DHT22;57890;52.36301240;9.76001620;2022-10-29T03:46:21;18.10;99.90
7044;DHT22;57890;52.36301240;9.76001620;2022-10-29T03:48:48;18.10;99.90
7044;DHT22;57890;52.36301240;9.76001620;2022-10-29T03:51:15;18.10;99.90
7044;DHT22;57890;52.36301240;9.76001620;2022-10-29T03:53:42;18.00;99.90
7044;DHT22;57890;52.36301240;9.76001620;2022-10-29T03:56:10;18.00;99.90
7044;DHT22;57890;52.36301240;9.76001620;2022-10-29T03:58:36;18.00;99.90
7044;DHT22;57890;52.36301240;9.76001620;2022-10-29T04:01:06;18.00;99.90
7044;DHT22;57890;52.36301240;9.76001620;2022-10-29T04:03:35;18.00;99.90
7044;DHT22;57890;52.36301240;9.76001620;2022-10-29T04:06:09;18.00;99.90
7044;DHT22;57890;52.36301240;9.76001620;2022-10-29T04:08:36;18.00;99.90
7044;DHT22;57890;52.36301240;9.76001620;2022-10-29T04:11:03;18.00;99.90
7044;DHT22;57890;52.36301240;9.76001620;2022-10-29T04:13:30;17.90;99.90
7044;DHT22;57890;52.36301240;9.76001620;2022-10-29T04:15:57;17.90;99.90
7044;DHT22;57890;52.36301240;9.76001620;2022-10-29T04:18:26;17.90;99.90
7044;DHT22;57890;52.36301240;9.76001620;2022-10-29T04:20:53;17.90;99.90
7044;DHT22;57890;52.36301240;9.76001620;2022-10-29T04:23:20;17.90;99.90
7044;DHT22;57890;52.36301240;9.76001620;2022-10-29T04:25:54;17.90;99.90
7044;DHT22;57890;52.36301240;9.76001620;2022-10-29T04:28:21;17.90;99.90
7044;DHT22;57890;52.36301240;9.76001620;2022-10-29T04:30:48;17.90;99.90
7044;DHT22;57890;52.36301240;9.76001620;2022-10-29T04:33:16;17.90;99.90
7044;DHT22;57890;52.36301240;9.76001620;2022-10-29T04:35:50;17.80;99.90
7044;DHT22;57890;52.36301240;9.76001620;2022-10-29T04:38:17;17.80;99.90
7044;DHT22;57890;52.36301240;9.76001620;2022-10-29T04:40:44;17.80;99.90
7044;DHT22;57890;52.36301240;9.76001620;2022-10-29T04:43:11;17.80;99.90
7044;DHT22;57890;52.36301240;9.76001620;2022-10-29T04:45:38;17.80;99.90
7044;DHT22;57890;52.36301240;9.76001620;2022-10-29T04:48:05;17.80;99.90
7044;DHT22;57890;52.36301240;9.76001620;2022-10-29T04:50:35;17.80;99.90
7044;DHT22;57890;52.36301240;9.76001620;2022-10-29T04:53:04;17.80;99.90
7044;DHT22;57890;52.36301240;9.76001620;2022-10-29T04:55:35;17.80;99.90
7044;DHT22;57890;52.36301240;9.76001620;2022-10-29T04:58:03;17.80;99.90
7044;DHT22;57890;52.36301240;9.76001620;2022-10-29T05:00:30;17.80;99.90
7044;DHT22;57890;52.36301240;9.76001620;2022-10-29T05:02:57;17.80;99.90
7044;DHT22;57890;52.36301240;9.76001620;2022-10-29T05:05:24;17.80;99.90
7044;DHT22;57890;52.36301240;9.76001620;2022-10-29T05:07:56;17.80;99.90
7044;DHT22;57890;52.36301240;9.76001620;2022-10-29T05:10:26;17.70;99.90
7044;DHT22;57890;52.36301240;9.76001620;2022-10-29T05:12:57;17.70;99.90
7044;DHT22;57890;52.36301240;9.76001620;2022-10-29T05:15:25;17.70;99.90
7044;DHT22;57890;52.36301240;9.76001620;2022-10-29T05:17:53;17.70;99.90
7044;DHT22;57890;52.36301240;9.76001620;2022-10-29T05:20:20;17.60;99.90
7044;DHT22;57890;52.36301240;9.76001620;2022-10-29T05:22:46;17.60;99.90
7044;DHT22;57890;52.36301240;9.76001620;2022-10-29T05:25:14;17.60;99.90
7044;DHT22;57890;52.36301240;9.76001620;2022-10-29T05:27:42;17.60;99.90
7044;DHT22;57890;52.36301240;9.76001620;2022-10-29T05:30:10;17.50;99.90
7044;DHT22;57890;52.36301240;9.76001620;2022-10-29T05:32:37;17.50;99.90
7044;DHT22;57890;52.36301240;9.76001620;2022-10-29T05:35:04;17.50;99.90
7044;DHT22;57890;52.36301240;9.76001620;2022-10-29T05:37:31;17.50;99.90
7044;DHT22;57890;52.36301240;9.76001620;2022-10-29T05:39:58;17.50;99.90
7044;DHT22;57890;52.36301240;9.76001620;2022-10-29T05:42:25;17.50;99.90
7044;DHT22;57890;52.36301240;9.76001620;2022-10-29T05:44:53;17.50;99.90
7044;DHT22;57890;52.36301240;9.76001620;2022-10-29T05:47:20;17.50;99.90
7044;DHT22;57890;52.36301240;9.76001620;2022-10-29T05:49:47;17.50;99.90
7044;DHT22;57890;52.36301240;9.76001620;2022-10-29T05:52:14;17.50;99.90
7044;DHT22;57890;52.36301240;9.76001620;2022-10-29T05:54:41;17.50;99.90
7044;DHT22;57890;52.36301240;9.76001620;2022-10-29T05:57:08;17.50;99.90
7044;DHT22;57890;52.36301240;9.76001620;2022-10-29T05:59:35;17.50;99.90
7044;DHT22;57890;52.36301240;9.76001620;2022-10-29T06:02:03;17.50;99.90
7044;DHT22;57890;52.36301240;9.76001620;2022-10-29T06:04:30;17.50;99.90
7044;DHT22;57890;52.36301240;9.76001620;2022-10-29T06:06:59;17.50;99.90
7044;DHT22;57890;52.36301240;9.76001620;2022-10-29T06:09:27;17.50;99.90
7044;DHT22;57890;52.36301240;9.76001620;2022-10-29T06:11:54;17.60;99.90
7044;DHT22;57890;52.36301240;9.76001620;2022-10-29T06:14:21;17.60;99.90
7044;DHT22;57890;52.36301240;9.76001620;2022-10-29T06:16:48;17.60;99.90
7044;DHT22;57890;52.36301240;9.76001620;2022-10-29T06:19:16;17.60;99.90
7044;DHT22;57890;52.36301240;9.76001620;2022-10-29T06:21:43;17.60;99.90
7044;DHT22;57890;52.36301240;9.76001620;2022-10-29T06:24:10;17.60;99.90
7044;DHT22;57890;52.36301240;9.76001620;2022-10-29T06:26:38;17.60;99.90
7044;DHT22;57890;52.36301240;9.76001620;2022-10-29T06:29:05;17.60;99.90
7044;DHT22;57890;52.36301240;9.76001620;2022-10-29T06:31:32;17.60;99.90
7044;DHT22;57890;52.36301240;9.76001620;2022-10-29T06:33:59;17.70;99.90
7044;DHT22;57890;52.36301240;9.76001620;2022-10-29T06:36:27;17.70;99.90
7044;DHT22;57890;52.36301240;9.76001620;2022-10-29T06:38:54;17.70;99.90
7044;DHT22;57890;52.36301240;9.76001620;2022-10-29T06:41:21;17.60;99.90
7044;DHT22;57890;52.36301240;9.76001620;2022-10-29T06:43:51;17.70;99.90
7044;DHT22;57890;52.36301240;9.76001620;2022-10-29T06:46:18;17.70;99.90
7044;DHT22;57890;52.36301240;9.76001620;2022-10-29T06:48:45;17.70;99.90
7044;DHT22;57890;52.36301240;9.76001620;2022-10-29T06:51:12;17.70;99.90
7044;DHT22;57890;52.36301240;9.76001620;2022-10-29T06:53:40;17.70;99.90
7044;DHT22;57890;52.36301240;9.76001620;2022-10-29T06:56:07;17.70;99.90
7044;DHT22;57890;52.36301240;9.76001620;2022-10-29T06:58:34;17.70;99.90
7044;DHT22;57890;52.36301240;9.76001620;2022-10-29T07:01:01;17.70;99.90
7044;DHT22;57890;52.36301240;9.76001620;2022-10-29T07:03:28;17.60;99.90
7044;DHT22;57890;52.36301240;9.76001620;2022-10-29T07:05:56;17.70;99.90
7044;DHT22;57890;52.36301240;9.76001620;2022-10-29T07:08:24;17.70;99.90
7044;DHT22;57890;52.36301240;9.76001620;2022-10-29T07:10:53;17.70;99.90
7044;DHT22;57890;52.36301240;9.76001620;2022-10-29T07:13:21;17.70;99.90
7044;DHT22;57890;52.36301240;9.76001620;2022-10-29T07:15:48;17.60;99.90
7044;DHT22;57890;52.36301240;9.76001620;2022-10-29T07:18:15;17.70;99.90
7044;DHT22;57890;52.36301240;9.76001620;2022-10-29T07:20:43;17.70;99.90
7044;DHT22;57890;52.36301240;9.76001620;2022-10-29T07:23:12;17.70;99.90
7044;DHT22;57890;52.36301240;9.76001620;2022-10-29T07:25:40;17.70;99.90
7044;DHT22;57890;52.36301240;9.76001620;2022-10-29T07:28:11;17.70;99.90
7044;DHT22;57890;52.36301240;9.76001620;2022-10-29T07:30:39;17.70;99.90
7044;DHT22;57890;52.36301240;9.76001620;2022-10-29T07:33:06;17.80;99.90
7044;DHT22;57890;52.36301240;9.76001620;2022-10-29T07:35:33;17.70;99.90
7044;DHT22;57890;52.36301240;9.76001620;2022-10-29T07:38:01;17.80;99.90
7044;DHT22;57890;52.36301240;9.76001620;2022-10-29T07:40:28;17.80;99.90
7044;DHT22;57890;52.36301240;9.76001620;2022-10-29T07:42:55;17.80;99.90
7044;DHT22;57890;52.36301240;9.76001620;2022-10-29T07:45:24;17.80;99.90
7044;DHT22;57890;52.36301240;9.76001620;2022-10-29T07:47:57;17.80;99.90
7044;DHT22;57890;52.36301240;9.76001620;2022-10-29T07:50:25;17.80;99.90
7044;DHT22;57890;52.36301240;9.76001620;2022-10-29T07:52:53;17.80;99.90
7044;DHT22;57890;52.36301240;9.76001620;2022-10-29T07:55:20;17.80;99.90
7044;DHT22;57890;52.36301240;9.76001620;2022-10-29T07:57:47;17.80;99.90
7044;DHT22;57890;52.36301240;9.76001620;2022-10-29T08:00:14;17.90;99.90
7044;DHT22;57890;52.36301240;9.76001620;2022-10-29T08:02:43;17.80;99.90
7044;DHT22;57890;52.36301240;9.76001620;2022-10-29T08:05:16;17.90;99.90
7044;DHT22;57890;52.36301240;9.76001620;2022-10-29T08:07:43;17.90;99.90
7044;DHT22;57890;52.36301240;9.76001620;2022-10-29T08:10:10;17.90;99.90
7044;DHT22;57890;52.36301240;9.76001620;2022-10-29T08:12:37;17.90;99.90
7044;DHT22;57890;52.36301240;9.76001620;2022-10-29T08:15:05;18.00;99.90
7044;DHT22;57890;52.36301240;9.76001620;2022-10-29T08:17:33;18.00;99.90
7044;DHT22;57890;52.36301240;9.76001620;2022-10-29T08:20:01;18.00;99.90
7044;DHT22;57890;52.36301240;9.76001620;2022-10-29T08:22:29;18.10;99.90
7044;DHT22;57890;52.36301240;9.76001620;2022-10-29T08:24:56;18.10;99.90
7044;DHT22;57890;52.36301240;9.76001620;2022-10-29T08:27:23;18.10;99.90
7044;DHT22;57890;52.36301240;9.76001620;2022-10-29T08:29:50;18.10;99.90
7044;DHT22;57890;52.36301240;9.76001620;2022-10-29T08:32:17;18.10;99.90
7044;DHT22;57890;52.36301240;9.76001620;2022-10-29T08:34:44;18.20;99.90
7044;DHT22;57890;52.36301240;9.76001620;2022-10-29T08:37:12;18.20;99.90
7044;DHT22;57890;52.36301240;9.76001620;2022-10-29T08:39:39;18.20;99.90
7044;DHT22;57890;52.36301240;9.76001620;2022-10-29T08:42:15;18.30;99.90
7044;DHT22;57890;52.36301240;9.76001620;2022-10-29T08:45:15;18.30;99.90
7044;DHT22;57890;52.36301240;9.76001620;2022-10-29T08:47:52;18.40;99.90
7044;DHT22;57890;52.36301240;9.76001620;2022-10-29T08:50:26;18.40;99.90
7044;DHT22;57890;52.36301240;9.76001620;2022-10-29T08:52:55;18.50;99.90
7044;DHT22;57890;52.36301240;9.76001620;2022-10-29T08:55:25;18.50;99.90
7044;DHT22;57890;52.36301240;9.76001620;2022-10-29T08:57:57;18.50;99.90
7044;DHT22;57890;52.36301240;9.76001620;2022-10-29T09:00:30;18.50;99.90
7044;DHT22;57890;52.36301240;9.76001620;2022-10-29T09:02:58;18.50;99.90
7044;DHT22;57890;52.36301240;9.76001620;2022-10-29T09:05:29;18.50;99.90
7044;DHT22;57890;52.36301240;9.76001620;2022-10-29T09:08:16;18.60;99.90
7044;DHT22;57890;52.36301240;9.76001620;2022-10-29T09:10:52;18.60;99.90
7044;DHT22;57890;52.36301240;9.76001620;2022-10-29T09:13:31;18.60;99.90
7044;DHT22;57890;52.36301240;9.76001620;2022-10-29T09:16:13;18.70;99.90
7044;DHT22;57890;52.36301240;9.76001620;2022-10-29T09:18:52;18.70;99.90
7044;DHT22;57890;52.36301240;9.76001620;2022-10-29T09:21:30;18.70;99.90
7044;DHT22;57890;52.36301240;9.76001620;2022-10-29T09:24:04;18.70;99.90
7044;DHT22;57890;52.36301240;9.76001620;2022-10-29T09:26:46;18.80;99.90
7044;DHT22;57890;52.36301240;9.76001620;2022-10-29T09:29:25;18.80;99.90
7044;DHT22;57890;52.36301240;9.76001620;2022-10-29T09:31:56;18.80;99.90
7044;DHT22;57890;52.36301240;9.76001620;2022-10-29T09:34:28;18.80;99.90
7044;DHT22;57890;52.36301240;9.76001620;2022-10-29T09:36:56;18.90;99.90
7044;DHT22;57890;52.36301240;9.76001620;2022-10-29T09:39:27;18.90;99.90
7044;DHT22;57890;52.36301240;9.76001620;2022-10-29T09:41:58;18.90;99.90
7044;DHT22;57890;52.36301240;9.76001620;2022-10-29T09:44:33;19.00;99.90
7044;DHT22;57890;52.36301240;9.76001620;2022-10-29T09:47:06;19.00;99.90
7044;DHT22;57890;52.36301240;9.76001620;2022-10-29T09:49:46;19.00;99.90
7044;DHT22;57890;52.36301240;9.76001620;2022-10-29T09:52:16;19.00;99.90
7044;DHT22;57890;52.36301240;9.76001620;2022-10-29T09:54:47;19.10;99.90
7044;DHT22;57890;52.36301240;9.76001620;2022-10-29T09:57:17;19.10;99.90
7044;DHT22;57890;52.36301240;9.76001620;2022-10-29T09:59:50;19.10;99.90
7044;DHT22;57890;52.36301240;9.76001620;2022-10-29T10:02:25;19.10;99.90
7044;DHT22;57890;52.36301240;9.76001620;2022-10-29T10:04:56;19.20;99.90
7044;DHT22;57890;52.36301240;9.76001620;2022-10-29T10:07:26;19.10;99.90
7044;DHT22;57890;52.36301240;9.76001620;2022-10-29T10:09:57;19.20;99.90
7044;DHT22;57890;52.36301240;9.76001620;2022-10-29T10:12:26;19.20;99.90
7044;DHT22;57890;52.36301240;9.76001620;2022-10-29T10:15:05;19.20;99.90
7044;DHT22;57890;52.36301240;9.76001620;2022-10-29T10:17:53;19.20;99.90
7044;DHT22;57890;52.36301240;9.76001620;2022-10-29T10:20:33;19.20;99.90
7044;DHT22;57890;52.36301240;9.76001620;2022-10-29T10:23:01;19.20;99.90
7044;DHT22;57890;52.36301240;9.76001620;2022-10-29T10:25:46;19.20;99.90
7044;DHT22;57890;52.36301240;9.76001620;2022-10-29T10:28:18;19.20;99.90
7044;DHT22;57890;52.36301240;9.76001620;2022-10-29T10:33:50;19.30;99.90
7044;DHT22;57890;52.36301240;9.76001620;2022-10-29T10:36:19;19.30;99.90
7044;DHT22;57890;52.36301240;9.76001620;2022-10-29T10:38:49;19.30;99.90
7044;DHT22;57890;52.36301240;9.76001620;2022-10-29T10:41:23;19.30;99.90
7044;DHT22;57890;52.36301240;9.76001620;2022-10-29T10:43:51;19.30;99.90
7044;DHT22;57890;52.36301240;9.76001620;2022-10-29T10:46:22;19.30;99.90
7044;DHT22;57890;52.36301240;9.76001620;2022-10-29T10:49:02;19.30;99.90
7044;DHT22;57890;52.36301240;9.76001620;2022-10-29T10:51:31;19.30;99.90
7044;DHT22;57890;52.36301240;9.76001620;2022-10-29T10:54:02;19.30;99.90
7044;DHT22;57890;52.36301240;9.76001620;2022-10-29T10:56:31;19.30;99.90
7044;DHT22;57890;52.36301240;9.76001620;2022-10-29T10:59:03;19.40;99.90
7044;DHT22;57890;52.36301240;9.76001620;2022-10-29T11:01:36;19.40;99.90
7044;DHT22;57890;52.36301240;9.76001620;2022-10-29T11:04:12;19.40;99.90
7044;DHT22;57890;52.36301240;9.76001620;2022-10-29T11:06:42;19.50;99.90
7044;DHT22;57890;52.36301240;9.76001620;2022-10-29T11:09:16;19.50;99.90
7044;DHT22;57890;52.36301240;9.76001620;2022-10-29T11:11:50;19.50;99.90
7044;DHT22;57890;52.36301240;9.76001620;2022-10-29T11:14:24;19.50;99.90
7044;DHT22;57890;52.36301240;9.76001620;2022-10-29T11:16:54;19.60;99.90
7044;DHT22;57890;52.36301240;9.76001620;2022-10-29T11:19:26;19.60;99.90
7044;DHT22;57890;52.36301240;9.76001620;2022-10-29T11:22:02;19.60;99.90
7044;DHT22;57890;52.36301240;9.76001620;2022-10-29T11:24:40;19.60;99.90
7044;DHT22;57890;52.36301240;9.76001620;2022-10-29T11:27:26;19.60;99.90
7044;DHT22;57890;52.36301240;9.76001620;2022-10-29T11:30:02;19.60;99.90
7044;DHT22;57890;52.36301240;9.76001620;2022-10-29T11:32:33;19.70;99.90
7044;DHT22;57890;52.36301240;9.76001620;2022-10-29T11:35:10;19.70;99.90
7044;DHT22;57890;52.36301240;9.76001620;2022-10-29T11:37:42;19.70;99.90
7044;DHT22;57890;52.36301240;9.76001620;2022-10-29T11:40:16;19.80;99.90
7044;DHT22;57890;52.36301240;9.76001620;2022-10-29T11:42:45;19.80;99.90
7044;DHT22;57890;52.36301240;9.76001620;2022-10-29T11:45:15;19.80;99.90
7044;DHT22;57890;52.36301240;9.76001620;2022-10-29T11:48:02;19.80;99.90
7044;DHT22;57890;52.36301240;9.76001620;2022-10-29T11:50:41;19.90;99.90
7044;DHT22;57890;52.36301240;9.76001620;2022-10-29T11:53:20;19.90;99.90
7044;DHT22;57890;52.36301240;9.76001620;2022-10-29T11:55:55;19.90;99.90
7044;DHT22;57890;52.36301240;9.76001620;2022-10-29T11:58:28;20.00;99.90
7044;DHT22;57890;52.36301240;9.76001620;2022-10-29T12:01:03;20.00;99.90
7044;DHT22;57890;52.36301240;9.76001620;2022-10-29T12:03:45;20.00;99.90
7044;DHT22;57890;52.36301240;9.76001620;2022-10-29T12:06:17;20.00;99.90
7044;DHT22;57890;52.36301240;9.76001620;2022-10-29T12:08:56;20.10;99.90
7044;DHT22;57890;52.36301240;9.76001620;2022-10-29T12:11:28;20.20;99.90
7044;DHT22;57890;52.36301240;9.76001620;2022-10-29T12:14:06;20.20;99.90
7044;DHT22;57890;52.36301240;9.76001620;2022-10-29T12:16:46;20.30;99.90
7044;DHT22;57890;52.36301240;9.76001620;2022-10-29T12:19:29;20.30;99.90
7044;DHT22;57890;52.36301240;9.76001620;2022-10-29T12:22:07;20.40;99.90
7044;DHT22;57890;52.36301240;9.76001620;2022-10-29T12:24:49;20.50;99.90
7044;DHT22;57890;52.36301240;9.76001620;2022-10-29T12:27:22;20.50;99.90
7044;DHT22;57890;52.36301240;9.76001620;2022-10-29T12:29:58;20.50;99.90
7044;DHT22;57890;52.36301240;9.76001620;2022-10-29T12:32:32;20.50;99.90
7044;DHT22;57890;52.36301240;9.76001620;2022-10-29T12:35:09;20.60;99.90
7044;DHT22;57890;52.36301240;9.76001620;2022-10-29T12:37:43;20.60;99.90
7044;DHT22;57890;52.36301240;9.76001620;2022-10-29T12:40:14;20.70;99.90
7044;DHT22;57890;52.36301240;9.76001620;2022-10-29T12:42:42;20.80;99.90
7044;DHT22;57890;52.36301240;9.76001620;2022-10-29T12:45:25;20.80;99.90
7044;DHT22;57890;52.36301240;9.76001620;2022-10-29T12:48:03;20.90;99.90
7044;DHT22;57890;52.36301240;9.76001620;2022-10-29T12:50:41;21.00;99.90
7044;DHT22;57890;52.36301240;9.76001620;2022-10-29T12:53:16;21.10;99.90
7044;DHT22;57890;52.36301240;9.76001620;2022-10-29T12:55:45;21.10;99.90
7044;DHT22;57890;52.36301240;9.76001620;2022-10-29T12:58:47;21.20;99.90
7044;DHT22;57890;52.36301240;9.76001620;2022-10-29T13:01:43;21.20;99.90
7044;DHT22;57890;52.36301240;9.76001620;2022-10-29T13:04:27;21.30;99.90
7044;DHT22;57890;52.36301240;9.76001620;2022-10-29T13:07:00;21.30;99.90
7044;DHT22;57890;52.36301240;9.76001620;2022-10-29T13:09:29;21.40;99.90
7044;DHT22;57890;52.36301240;9.76001620;2022-10-29T13:11:57;21.40;99.90
7044;DHT22;57890;52.36301240;9.76001620;2022-10-29T13:14:43;21.40;99.90
7044;DHT22;57890;52.36301240;9.76001620;2022-10-29T13:17:29;21.40;99.90
7044;DHT22;57890;52.36301240;9.76001620;2022-10-29T13:19:58;21.40;99.90
7044;DHT22;57890;52.36301240;9.76001620;2022-10-29T13:25:44;21.50;99.90
7044;DHT22;57890;52.36301240;9.76001620;2022-10-29T13:28:48;21.60;99.90
7044;DHT22;57890;52.36301240;9.76001620;2022-10-29T13:31:40;21.60;99.90
7044;DHT22;57890;52.36301240;9.76001620;2022-10-29T13:34:09;21.60;99.90
7044;DHT22;57890;52.36301240;9.76001620;2022-10-29T13:36:37;21.60;99.90
7044;DHT22;57890;52.36301240;9.76001620;2022-10-29T13:39:16;21.60;99.90
7044;DHT22;57890;52.36301240;9.76001620;2022-10-29T13:41:48;21.60;99.90
7044;DHT22;57890;52.36301240;9.76001620;2022-10-29T13:44:19;21.60;99.90
7044;DHT22;57890;52.36301240;9.76001620;2022-10-29T13:46:49;21.60;99.90
7044;DHT22;57890;52.36301240;9.76001620;2022-10-29T13:49:23;21.60;99.90
7044;DHT22;57890;52.36301240;9.76001620;2022-10-29T13:51:54;21.60;99.90
7044;DHT22;57890;52.36301240;9.76001620;2022-10-29T13:54:29;21.50;99.90
7044;DHT22;57890;52.36301240;9.76001620;2022-10-29T13:56:59;21.50;99.90
7044;DHT22;57890;52.36301240;9.76001620;2022-10-29T13:59:35;21.40;99.90
7044;DHT22;57890;52.36301240;9.76001620;2022-10-29T14:02:15;21.40;99.90
7044;DHT22;57890;52.36301240;9.76001620;2022-10-29T14:04:49;21.40;99.90